Time;durP1;ratioP1;P1;durP2;ratioP2;P2;SDS_P1;SDS_P2;PMS_P1;PMS_P2;Temp;Humidity;BMP_temperature;BMP_pressure;BME280_temperature;BME280_humidity;BME280_pressure;Samples;Min_cycle;Max_cycle;Signal;HPM_P1;HPM_P2
2023/12/07 00:01:11;;;;;;;21.75;10.55;;;3.10;99.90;;;;;;5035241;28;20026;-64
2023/12/07 00:03:36;;;;;;;29.58;10.52;;;3.10;99.90;;;;;;5034904;28;20022;-64
2023/12/07 00:06:02;;;;;;;21.75;10.48;;;3.10;99.90;;;;;;5034737;28;20025;-64
2023/12/07 00:08:28;;;;;;;21.58;10.05;;;3.00;99.90;;;;;;5035504;28;20033;-64
2023/12/07 00:10:53;;;;;;;32.97;11.25;;;3.00;99.90;;;;;;5034425;28;20030;-64
2023/12/07 00:13:19;;;;;;;26.83;11.48;;;3.00;99.90;;;;;;5034752;28;20117;-64
2023/12/07 00:15:44;;;;;;;23.58;11.55;;;3.10;99.90;;;;;;5034678;28;20025;-64
2023/12/07 00:18:10;;;;;;;24.10;10.98;;;3.10;99.90;;;;;;5034473;28;20030;-64
2023/12/07 00:20:36;;;;;;;29.83;12.02;;;3.00;99.90;;;;;;5034237;28;20026;-64
2023/12/07 00:23:01;;;;;;;21.35;10.52;;;2.80;99.90;;;;;;5034583;28;20018;-64
2023/12/07 00:25:27;;;;;;;25.20;12.02;;;2.70;99.90;;;;;;5034997;28;20025;-64
2023/12/07 00:27:52;;;;;;;25.30;11.95;;;2.80;99.90;;;;;;5034454;28;20022;-64
2023/12/07 00:30:18;;;;;;;27.05;11.63;;;2.80;99.90;;;;;;5035241;28;20034;-64
2023/12/07 00:32:43;;;;;;;32.85;12.15;;;2.80;99.90;;;;;;5034402;28;20121;-64
2023/12/07 00:35:13;;;;;;;27.98;11.88;;;2.80;99.90;;;;;;5034265;28;20045;-64
2023/12/07 00:37:39;;;;;;;21.70;10.18;;;2.80;99.90;;;;;;5034586;28;20026;-63
2023/12/07 00:40:05;;;;;;;26.95;11.30;;;2.80;99.90;;;;;;5033899;28;20052;-64
2023/12/07 00:42:31;;;;;;;29.35;11.57;;;2.80;99.90;;;;;;5034013;28;20041;-64
2023/12/07 00:44:56;;;;;;;26.23;13.00;;;2.80;99.90;;;;;;5033850;28;20026;-64
2023/12/07 00:47:22;;;;;;;25.77;11.75;;;2.80;99.90;;;;;;5033981;28;20033;-64
2023/12/07 00:49:48;;;;;;;30.38;12.50;;;2.80;99.90;;;;;;5034586;28;20038;-64
2023/12/07 00:52:13;;;;;;;27.42;12.13;;;2.80;99.90;;;;;;5033828;28;20022;-64
2023/12/07 00:54:39;;;;;;;33.58;12.07;;;2.80;99.90;;;;;;5033467;28;20025;-64
2023/12/07 00:57:05;;;;;;;28.02;12.07;;;2.70;99.90;;;;;;5016882;28;20026;-64
2023/12/07 00:59:33;;;;;;;29.83;12.80;;;2.80;99.90;;;;;;5033739;28;20026;-64
2023/12/07 01:02:06;;;;;;;27.35;12.35;;;2.80;99.90;;;;;;5017915;28;20022;-64
2023/12/07 01:04:32;;;;;;;32.92;13.95;;;2.80;99.90;;;;;;5017951;28;20042;-64
2023/12/07 01:06:57;;;;;;;24.15;11.80;;;2.90;99.90;;;;;;5033382;28;20018;-64
2023/12/07 01:09:24;;;;;;;28.83;13.38;;;2.90;99.90;;;;;;5017719;28;20025;-64
2023/12/07 01:11:50;;;;;;;39.10;13.48;;;2.90;99.90;;;;;;5033609;28;20026;-64
2023/12/07 01:14:16;;;;;;;30.98;13.65;;;3.10;99.90;;;;;;5017699;28;20022;-64
2023/12/07 01:16:42;;;;;;;32.00;13.45;;;3.20;99.90;;;;;;5033582;28;20022;-64
2023/12/07 01:19:07;;;;;;;30.17;12.57;;;3.30;99.90;;;;;;5017412;28;20026;-64
2023/12/07 01:21:33;;;;;;;31.65;13.75;;;3.40;99.90;;;;;;5017443;28;20068;-64
2023/12/07 01:23:59;;;;;;;34.17;14.90;;;3.40;99.90;;;;;;5033443;28;20121;-64
2023/12/07 01:26:25;;;;;;;34.10;13.02;;;3.30;99.90;;;;;;5033287;28;20076;-64
2023/12/07 01:28:50;;;;;;;27.63;13.10;;;3.30;99.90;;;;;;5032914;28;20022;-64
2023/12/07 01:31:16;;;;;;;31.30;13.98;;;3.30;99.90;;;;;;5017637;28;20038;-64
2023/12/07 01:33:42;;;;;;;31.42;12.88;;;3.20;99.90;;;;;;5017374;28;20029;-64
2023/12/07 01:36:08;;;;;;;34.35;13.55;;;3.20;99.90;;;;;;5032865;28;20030;-64
2023/12/07 01:38:34;;;;;;;33.45;14.43;;;3.30;99.90;;;;;;5032755;28;20097;-64
2023/12/07 01:40:59;;;;;;;31.27;11.85;;;3.20;99.90;;;;;;5032748;28;20022;-64
2023/12/07 01:43:25;;;;;;;31.50;14.30;;;3.10;99.90;;;;;;5033082;28;20018;-66
2023/12/07 01:45:53;;;;;;;31.98;12.70;;;3.10;99.90;;;;;;5032632;28;20018;-64
2023/12/07 01:48:20;;;;;;;25.73;12.43;;;3.00;99.90;;;;;;5016202;28;20033;-64
2023/12/07 01:50:46;;;;;;;30.27;13.20;;;2.80;99.90;;;;;;5016197;28;20030;-64
2023/12/07 01:53:13;;;;;;;31.13;13.32;;;2.70;99.90;;;;;;5017063;28;20044;-64
2023/12/07 01:55:39;;;;;;;34.75;14.30;;;2.60;99.90;;;;;;5032640;28;20037;-64
2023/12/07 01:58:06;;;;;;;31.77;13.93;;;2.60;99.90;;;;;;5017071;28;20116;-64
2023/12/07 02:00:33;;;;;;;30.63;13.55;;;2.70;99.90;;;;;;5016950;28;20022;-64
2023/12/07 02:03:02;;;;;;;32.08;13.38;;;2.60;99.90;;;;;;5017548;28;20022;-64
2023/12/07 02:05:28;;;;;;;32.33;14.68;;;2.60;99.90;;;;;;5016872;28;20050;-64
2023/12/07 02:07:54;;;;;;;37.65;13.55;;;2.60;99.90;;;;;;5034090;28;20026;-64
2023/12/07 02:10:19;;;;;;;34.83;14.75;;;2.70;99.90;;;;;;5021208;28;20037;-64
2023/12/07 02:12:47;;;;;;;33.95;15.27;;;2.80;99.90;;;;;;5020873;28;20026;-64
2023/12/07 02:15:12;;;;;;;33.15;14.02;;;2.80;99.90;;;;;;5019980;28;20022;-64
2023/12/07 02:18:06;;;;;;;33.63;12.90;;;2.80;99.90;;;;;;5036549;28;20037;-64
2023/12/07 02:20:47;;;;;;;29.00;12.57;;;2.70;99.90;;;;;;4994821;28;20116;-64
2023/12/07 02:23:15;;;;;;;29.55;13.73;;;2.60;99.90;;;;;;5036371;28;20033;-64
2023/12/07 02:25:50;;;;;;;35.25;14.73;;;2.60;99.90;;;;;;5020549;28;20087;-64
2023/12/07 02:28:17;;;;;;;33.45;15.00;;;2.50;99.90;;;;;;5019833;28;20071;-64
2023/12/07 02:30:42;;;;;;;34.13;14.55;;;2.60;99.90;;;;;;5036176;28;20018;-64
2023/12/07 02:33:08;;;;;;;36.20;14.25;;;2.50;99.90;;;;;;5036964;28;20053;-64
2023/12/07 02:35:35;;;;;;;38.33;13.60;;;2.60;99.90;;;;;;5019706;28;20097;-64
2023/12/07 02:38:02;;;;;;;38.53;15.57;;;2.60;99.90;;;;;;5019959;28;20029;-64
2023/12/07 02:40:28;;;;;;;27.65;13.88;;;2.50;99.90;;;;;;5036231;28;20077;-64
2023/12/07 02:42:55;;;;;;;36.83;14.82;;;2.50;99.90;;;;;;5036353;28;20022;-64
2023/12/07 02:45:21;;;;;;;31.60;12.05;;;2.60;99.90;;;;;;5020694;28;20026;-64
2023/12/07 02:47:46;;;;;;;36.63;14.90;;;2.50;99.90;;;;;;5035920;28;20108;-64
2023/12/07 02:50:13;;;;;;;26.90;13.43;;;2.40;99.90;;;;;;5036012;28;20045;-64
2023/12/07 02:52:39;;;;;;;36.60;13.52;;;2.30;99.90;;;;;;5036583;28;20033;-64
2023/12/07 02:55:05;;;;;;;31.92;13.32;;;2.30;99.90;;;;;;5036573;28;20030;-64
2023/12/07 02:57:33;;;;;;;34.55;13.98;;;2.30;99.90;;;;;;5020084;28;20033;-64
2023/12/07 02:59:59;;;;;;;39.33;15.90;;;2.20;99.90;;;;;;5036454;28;20022;-64
2023/12/07 03:02:25;;;;;;;35.63;14.38;;;2.30;99.90;;;;;;5035639;28;20022;-64
2023/12/07 03:04:50;;;;;;;36.95;15.27;;;2.30;99.90;;;;;;5020122;28;20033;-64
2023/12/07 03:07:16;;;;;;;36.00;14.38;;;2.30;99.90;;;;;;5036537;28;20085;-64
2023/12/07 03:09:41;;;;;;;36.10;14.48;;;2.20;99.90;;;;;;5035684;28;20022;-65
2023/12/07 03:12:07;;;;;;;35.47;15.13;;;2.10;99.90;;;;;;5019985;28;20026;-64
2023/12/07 03:14:33;;;;;;;33.60;15.23;;;2.00;99.90;;;;;;5036455;28;20045;-64
2023/12/07 03:16:58;;;;;;;37.53;14.07;;;2.00;99.90;;;;;;5035314;28;20131;-64
2023/12/07 03:19:24;;;;;;;36.90;14.05;;;1.90;99.90;;;;;;5017929;28;20034;-64
2023/12/07 03:21:50;;;;;;;34.80;13.27;;;1.90;99.90;;;;;;5019681;28;20081;-64
2023/12/07 03:24:15;;;;;;;44.33;14.55;;;1.90;99.90;;;;;;5020233;28;20041;-64
2023/12/07 03:26:41;;;;;;;35.15;13.40;;;1.90;99.90;;;;;;5019585;28;20080;-64
2023/12/07 03:29:07;;;;;;;36.00;14.63;;;1.80;99.90;;;;;;5035584;28;20022;-64
2023/12/07 03:31:33;;;;;;;36.15;13.15;;;1.80;99.90;;;;;;5035077;28;20025;-64
2023/12/07 03:34:00;;;;;;;34.08;14.15;;;1.80;99.90;;;;;;5035089;28;20018;-64
2023/12/07 03:36:26;;;;;;;36.05;14.63;;;1.80;99.90;;;;;;5035286;28;20048;-65
2023/12/07 03:38:52;;;;;;;33.42;13.95;;;1.80;99.90;;;;;;5034894;28;20089;-64
2023/12/07 03:41:17;;;;;;;33.58;14.10;;;1.70;99.90;;;;;;5034875;28;20030;-64
2023/12/07 03:43:43;;;;;;;35.17;14.63;;;1.70;99.90;;;;;;5018722;28;20080;-64
2023/12/07 03:46:08;;;;;;;31.80;13.27;;;1.80;99.90;;;;;;5034910;28;20033;-64
2023/12/07 03:48:34;;;;;;;38.80;13.10;;;1.80;99.90;;;;;;5019668;28;20037;-64
2023/12/07 03:51:01;;;;;;;29.42;13.40;;;1.80;99.90;;;;;;5019204;28;20022;-64
2023/12/07 03:53:27;;;;;;;36.08;13.80;;;1.80;99.90;;;;;;5019031;28;20025;-64
2023/12/07 03:55:52;;;;;;;32.13;13.30;;;1.90;99.90;;;;;;5019056;28;20022;-64
2023/12/07 03:58:18;;;;;;;32.70;13.77;;;1.80;99.90;;;;;;5034553;28;20026;-64
2023/12/07 04:00:45;;;;;;;30.80;12.57;;;1.80;99.90;;;;;;5034590;28;20034;-64
2023/12/07 04:03:10;;;;;;;34.65;14.93;;;1.70;99.90;;;;;;5035252;28;20033;-64
2023/12/07 04:05:36;;;;;;;28.65;12.70;;;1.60;99.90;;;;;;5034506;28;20104;-64
2023/12/07 04:08:01;;;;;;;33.63;13.48;;;1.50;99.90;;;;;;5035165;28;20018;-64
2023/12/07 04:10:27;;;;;;;35.72;14.10;;;1.50;99.90;;;;;;5035251;28;20022;-64
2023/12/07 04:12:52;;;;;;;32.83;13.75;;;1.50;99.90;;;;;;5035036;28;20022;-64
2023/12/07 04:15:19;;;;;;;42.40;16.08;;;1.50;99.90;;;;;;5034378;28;20022;-64
2023/12/07 04:17:45;;;;;;;35.05;14.30;;;1.50;99.90;;;;;;5034226;28;20109;-64
2023/12/07 04:20:12;;;;;;;37.60;14.27;;;1.50;99.90;;;;;;5034935;28;20168;-64
2023/12/07 04:22:38;;;;;;;36.42;13.88;;;1.50;99.90;;;;;;5034548;28;20081;-64
2023/12/07 04:25:04;;;;;;;30.50;13.60;;;1.40;99.90;;;;;;5034179;28;20049;-64
2023/12/07 04:27:30;;;;;;;33.25;13.10;;;1.30;99.90;;;;;;5018755;28;20040;-64
2023/12/07 04:29:56;;;;;;;31.15;12.30;;;1.30;99.90;;;;;;5018840;28;20113;-64
2023/12/07 04:32:22;;;;;;;32.92;12.27;;;1.20;99.90;;;;;;5033773;28;20025;-64
2023/12/07 04:34:47;;;;;;;33.25;12.30;;;1.20;99.90;;;;;;5033979;28;20041;-64
2023/12/07 04:37:13;;;;;;;32.10;12.98;;;1.30;99.90;;;;;;5018302;28;20030;-64
2023/12/07 04:39:38;;;;;;;34.88;12.65;;;1.30;99.90;;;;;;5017044;28;20125;-64
2023/12/07 04:42:04;;;;;;;32.25;12.52;;;1.30;99.90;;;;;;5018266;28;20022;-64
2023/12/07 04:44:30;;;;;;;35.60;14.25;;;1.40;99.90;;;;;;5018135;28;20033;-64
2023/12/07 04:46:55;;;;;;;35.72;14.23;;;1.40;99.90;;;;;;5033763;28;20045;-64
2023/12/07 04:49:21;;;;;;;35.92;14.80;;;1.40;99.90;;;;;;5033765;28;20085;-64
2023/12/07 04:51:46;;;;;;;36.45;13.98;;;1.30;99.90;;;;;;5017983;28;20091;-64
2023/12/07 04:54:14;;;;;;;39.30;15.15;;;1.40;99.90;;;;;;5018034;28;20097;-64
2023/12/07 04:56:40;;;;;;;39.85;15.07;;;1.40;99.90;;;;;;5017929;28;20041;-64
2023/12/07 04:59:06;;;;;;;35.92;13.27;;;1.30;99.90;;;;;;5017024;28;20033;-64
2023/12/07 05:01:32;;;;;;;37.40;14.45;;;1.40;99.90;;;;;;5017977;28;20030;-64
2023/12/07 05:03:57;;;;;;;35.47;14.68;;;1.30;99.90;;;;;;5018053;28;20037;-64
2023/12/07 05:06:23;;;;;;;40.92;15.65;;;1.40;99.90;;;;;;5017741;28;20076;-64
2023/12/07 05:08:48;;;;;;;44.70;15.07;;;1.50;99.90;;;;;;5033203;28;20053;-64
2023/12/07 05:11:14;;;;;;;41.00;15.98;;;1.50;99.90;;;;;;5017583;28;20033;-64
2023/12/07 05:13:39;;;;;;;58.42;17.75;;;1.50;99.90;;;;;;5033742;28;20084;-64
2023/12/07 05:16:05;;;;;;;70.78;17.60;;;1.60;99.90;;;;;;5033184;28;20030;-64
2023/12/07 05:18:31;;;;;;;55.28;17.48;;;1.70;99.90;;;;;;5033420;28;20029;-64
2023/12/07 05:20:56;;;;;;;58.00;19.25;;;1.70;99.90;;;;;;5034111;28;20030;-64
2023/12/07 05:23:22;;;;;;;63.90;18.83;;;1.70;99.90;;;;;;5032945;28;20045;-64
2023/12/07 05:25:47;;;;;;;50.65;17.40;;;1.70;99.90;;;;;;5033110;28;20049;-64
2023/12/07 05:28:13;;;;;;;57.83;18.60;;;1.70;99.90;;;;;;5032983;28;20134;-64
2023/12/07 05:30:38;;;;;;;73.75;19.23;;;1.80;99.90;;;;;;5033788;28;20022;-64
2023/12/07 05:33:04;;;;;;;69.60;19.02;;;1.90;99.90;;;;;;5033289;28;20030;-64
2023/12/07 05:35:30;;;;;;;71.97;18.42;;;2.00;99.90;;;;;;5033935;28;20033;-64
2023/12/07 05:37:55;;;;;;;77.82;19.08;;;1.90;99.90;;;;;;5032910;28;20065;-70
2023/12/07 05:40:21;;;;;;;125.63;21.98;;;1.90;99.90;;;;;;5033406;28;20080;-71
2023/12/07 05:42:50;;;;;;;90.97;19.75;;;1.90;99.90;;;;;;5032564;28;20025;-71
2023/12/07 05:45:15;;;;;;;150.90;25.17;;;1.90;99.90;;;;;;5032957;28;20029;-71
2023/12/07 05:47:41;;;;;;;111.70;21.73;;;1.90;99.90;;;;;;5033573;28;20101;-71
2023/12/07 05:50:07;;;;;;;128.15;21.10;;;1.70;99.90;;;;;;5032881;28;20030;-71
2023/12/07 05:52:33;;;;;;;115.10;22.38;;;1.60;99.90;;;;;;5032864;28;20121;-71
2023/12/07 05:54:59;;;;;;;120.88;21.15;;;1.70;99.90;;;;;;5032746;28;20124;-70
2023/12/07 05:57:24;;;;;;;96.13;20.85;;;1.70;99.90;;;;;;5032728;28;20030;-70
2023/12/07 05:59:50;;;;;;;204.85;29.70;;;1.60;99.90;;;;;;5032599;28;20022;-70
2023/12/07 06:02:15;;;;;;;133.20;25.27;;;1.60;99.90;;;;;;5033618;28;20045;-71
2023/12/07 06:04:41;;;;;;;202.38;27.73;;;1.50;99.90;;;;;;5032850;28;20018;-71
2023/12/07 06:07:06;;;;;;;225.20;27.80;;;1.40;99.90;;;;;;5033310;28;20026;-71
2023/12/07 06:09:32;;;;;;;129.35;24.02;;;1.30;99.90;;;;;;5033356;28;20026;-71
2023/12/07 06:11:58;;;;;;;145.60;26.73;;;1.30;99.90;;;;;;5032589;28;20026;-71
2023/12/07 06:14:23;;;;;;;216.48;26.80;;;1.30;99.90;;;;;;5032660;28;20083;-71
2023/12/07 06:16:49;;;;;;;107.60;19.13;;;1.20;99.90;;;;;;5032733;28;20018;-71
2023/12/07 06:19:15;;;;;;;140.40;24.60;;;1.20;99.90;;;;;;5032382;28;20032;-71
2023/12/07 06:21:40;;;;;;;100.47;19.50;;;1.30;99.90;;;;;;5032772;28;20021;-71
2023/12/07 06:24:07;;;;;;;96.30;20.08;;;1.40;99.90;;;;;;5032334;28;20127;-71
2023/12/07 06:26:32;;;;;;;151.85;26.10;;;1.50;99.90;;;;;;5032380;28;20022;-71
2023/12/07 06:28:58;;;;;;;198.35;24.55;;;1.50;99.90;;;;;;5032287;28;20027;-71
2023/12/07 06:31:24;;;;;;;165.25;22.67;;;1.50;99.90;;;;;;5032435;28;20083;-70
2023/12/07 06:33:49;;;;;;;209.55;27.20;;;1.50;99.90;;;;;;5032671;28;20120;-70
2023/12/07 06:36:20;;;;;;;169.68;25.42;;;1.40;99.90;;;;;;5033176;28;20041;-70
2023/12/07 06:38:46;;;;;;;155.38;22.15;;;1.20;99.90;;;;;;5032311;28;20034;-70
2023/12/07 06:41:11;;;;;;;126.75;19.98;;;1.10;99.90;;;;;;5032276;28;20022;-70
2023/12/07 06:43:37;;;;;;;190.90;25.65;;;1.00;99.90;;;;;;5032781;28;20030;-71
2023/12/07 06:46:02;;;;;;;259.88;29.10;;;1.10;99.90;;;;;;5032476;28;20014;-71
2023/12/07 06:48:28;;;;;;;161.48;24.05;;;0.90;99.90;;;;;;5032291;28;20054;-71
2023/12/07 06:50:54;;;;;;;156.95;22.45;;;1.00;99.90;;;;;;5033024;28;20026;-70
2023/12/07 06:53:20;;;;;;;210.40;23.65;;;0.90;99.90;;;;;;5032615;28;20084;-70
2023/12/07 06:55:45;;;;;;;94.82;15.85;;;0.80;99.90;;;;;;5035935;28;20033;-70
2023/12/07 06:58:11;;;;;;;147.40;25.70;;;0.90;99.90;;;;;;5036658;28;20033;-70
2023/12/07 07:00:36;;;;;;;243.68;29.55;;;0.90;99.90;;;;;;5036057;28;20030;-70
2023/12/07 07:03:02;;;;;;;163.30;21.70;;;0.70;99.90;;;;;;5036674;28;20018;-70
2023/12/07 07:05:28;;;;;;;150.98;24.45;;;0.80;99.90;;;;;;5035744;28;20049;-71
2023/12/07 07:07:55;;;;;;;181.80;26.63;;;0.90;99.90;;;;;;5035937;28;20035;-71
2023/12/07 07:10:21;;;;;;;124.20;20.55;;;0.80;99.90;;;;;;5035804;28;20087;-71
2023/12/07 07:12:46;;;;;;;142.20;21.10;;;0.90;99.90;;;;;;5035379;28;20112;-71
2023/12/07 07:15:12;;;;;;;205.68;28.88;;;1.10;99.90;;;;;;5035881;28;20040;-71
2023/12/07 07:17:38;;;;;;;192.18;22.95;;;1.00;99.90;;;;;;5035655;28;20033;-70
2023/12/07 07:20:04;;;;;;;86.95;17.33;;;0.80;99.90;;;;;;5035254;28;20026;-70
2023/12/07 07:22:29;;;;;;;136.18;21.02;;;0.80;99.90;;;;;;5035263;28;20022;-70
2023/12/07 07:24:55;;;;;;;162.02;23.95;;;1.00;99.90;;;;;;5035294;28;20025;-70
2023/12/07 07:27:20;;;;;;;132.45;19.23;;;0.90;99.90;;;;;;5035275;28;20037;-70
2023/12/07 07:29:46;;;;;;;120.40;20.70;;;0.90;99.90;;;;;;5035283;28;20025;-70
2023/12/07 07:32:11;;;;;;;237.65;26.70;;;0.90;99.90;;;;;;5035999;28;20026;-71
2023/12/07 07:34:37;;;;;;;106.25;19.70;;;0.70;99.90;;;;;;5035164;28;20026;-72
2023/12/07 07:37:03;;;;;;;147.18;21.08;;;0.70;99.90;;;;;;5035328;28;20121;-71
2023/12/07 07:39:28;;;;;;;198.13;26.60;;;0.70;99.90;;;;;;5034881;28;20034;-71
2023/12/07 07:41:54;;;;;;;84.60;15.43;;;0.60;99.90;;;;;;5035366;28;20022;-70
2023/12/07 07:44:19;;;;;;;103.47;17.13;;;0.80;99.90;;;;;;5035332;28;20033;-70
2023/12/07 07:46:46;;;;;;;80.38;15.27;;;0.80;99.90;;;;;;5035235;28;20092;-73
2023/12/07 07:49:11;;;;;;;103.85;17.52;;;0.90;99.90;;;;;;5035264;28;20020;-72
2023/12/07 07:51:38;;;;;;;151.75;23.70;;;0.90;99.90;;;;;;5034849;28;20129;-72
2023/12/07 07:54:04;;;;;;;98.45;17.45;;;0.80;99.90;;;;;;5035095;28;20022;-72
2023/12/07 07:56:30;;;;;;;85.28;15.13;;;0.70;99.90;;;;;;5035302;28;20079;-73
2023/12/07 07:58:55;;;;;;;130.07;17.92;;;0.90;99.90;;;;;;5034830;28;20071;-72
2023/12/07 08:01:21;;;;;;;151.85;22.88;;;0.90;99.90;;;;;;5034968;28;20033;-71
2023/12/07 08:03:46;;;;;;;51.65;14.55;;;0.80;99.90;;;;;;5034926;28;20030;-71
2023/12/07 08:06:12;;;;;;;57.05;14.07;;;0.70;99.90;;;;;;5034343;28;20028;-71
2023/12/07 08:08:38;;;;;;;56.30;14.77;;;0.70;99.90;;;;;;5034655;28;20022;-72
2023/12/07 08:11:05;;;;;;;54.75;15.88;;;0.70;99.90;;;;;;5035059;28;20119;-71
2023/12/07 08:13:30;;;;;;;43.35;14.60;;;0.70;99.90;;;;;;5034811;28;20025;-70
2023/12/07 08:15:56;;;;;;;42.20;13.98;;;0.70;99.90;;;;;;5035072;28;20033;-70
2023/12/07 08:18:22;;;;;;;37.00;14.18;;;0.80;99.90;;;;;;5035050;28;20056;-70
2023/12/07 08:20:48;;;;;;;39.00;13.00;;;0.80;99.90;;;;;;5034847;28;20061;-71
2023/12/07 08:23:13;;;;;;;29.90;12.40;;;0.60;99.90;;;;;;5034805;28;20022;-71
2023/12/07 08:25:40;;;;;;;32.17;13.38;;;0.60;99.90;;;;;;5034939;28;20018;-71
2023/12/07 08:28:05;;;;;;;41.40;12.23;;;0.60;99.90;;;;;;5034836;28;20048;-71
2023/12/07 08:30:31;;;;;;;36.55;12.68;;;0.60;99.90;;;;;;5034531;28;20089;-71
2023/12/07 08:32:56;;;;;;;39.47;14.02;;;0.60;99.90;;;;;;5034888;28;20033;-71
2023/12/07 08:35:23;;;;;;;33.30;12.07;;;0.60;99.90;;;;;;5034909;28;20033;-71
2023/12/07 08:37:48;;;;;;;40.83;14.07;;;0.60;99.90;;;;;;5034304;28;20030;-71
2023/12/07 08:40:15;;;;;;;33.40;12.25;;;0.60;99.90;;;;;;5035064;28;20026;-71
2023/12/07 08:42:41;;;;;;;36.05;14.15;;;1.00;99.90;;;;;;5033912;28;20021;-71
2023/12/07 08:45:07;;;;;;;38.17;14.40;;;1.00;99.90;;;;;;5034711;28;20018;-71
2023/12/07 08:47:33;;;;;;;43.85;14.52;;;0.90;99.90;;;;;;5033973;28;20022;-70
2023/12/07 08:49:59;;;;;;;41.70;13.23;;;0.80;99.90;;;;;;5034049;28;20037;-70
2023/12/07 08:52:24;;;;;;;46.35;13.30;;;0.90;99.90;;;;;;5033698;28;20113;-70
2023/12/07 08:54:50;;;;;;;49.70;15.18;;;1.00;99.90;;;;;;5034495;28;20017;-70
2023/12/07 08:57:18;;;;;;;56.40;15.13;;;1.20;99.90;;;;;;5033628;28;20057;-70
2023/12/07 08:59:43;;;;;;;42.92;15.93;;;1.20;99.90;;;;;;5034282;28;20030;-70
2023/12/07 09:02:09;;;;;;;50.75;14.25;;;1.20;99.90;;;;;;5034550;28;20041;-70
2023/12/07 09:04:34;;;;;;;59.72;16.13;;;1.30;99.90;;;;;;5033861;28;20022;-70
2023/12/07 09:07:00;;;;;;;42.53;15.52;;;1.20;99.90;;;;;;5033952;28;20075;-70
2023/12/07 09:09:25;;;;;;;51.90;14.98;;;1.20;99.90;;;;;;5033317;28;20057;-70
2023/12/07 09:11:51;;;;;;;38.55;14.48;;;1.30;99.90;;;;;;5033466;28;20105;-70
2023/12/07 09:14:16;;;;;;;44.15;14.40;;;1.40;99.90;;;;;;5033479;28;20021;-70
2023/12/07 09:16:46;;;;;;;41.75;14.68;;;1.50;99.90;;;;;;5033033;28;20110;-70
2023/12/07 09:19:13;;;;;;;41.30;13.30;;;1.60;99.90;;;;;;5033428;28;20028;-70
2023/12/07 09:21:41;;;;;;;45.03;14.05;;;1.70;99.90;;;;;;5033855;28;20026;-70
2023/12/07 09:24:07;;;;;;;45.03;14.45;;;1.90;99.90;;;;;;5033538;28;20054;-70
2023/12/07 09:26:33;;;;;;;40.40;14.88;;;1.80;99.90;;;;;;5033404;28;20053;-70
2023/12/07 09:28:58;;;;;;;37.65;14.25;;;1.70;99.90;;;;;;5032925;28;20116;-70
2023/12/07 09:31:24;;;;;;;47.38;14.32;;;1.60;99.90;;;;;;5033170;28;20080;-70
2023/12/07 09:33:49;;;;;;;43.53;15.10;;;1.60;99.90;;;;;;5032899;28;20022;-70
2023/12/07 09:36:18;;;;;;;44.25;14.85;;;1.60;99.90;;;;;;5033228;28;20029;-70
2023/12/07 09:38:44;;;;;;;48.33;15.38;;;1.60;99.90;;;;;;5032777;28;20041;-70
2023/12/07 09:41:10;;;;;;;40.13;14.00;;;1.60;99.90;;;;;;5017530;28;20036;-70
2023/12/07 09:43:36;;;;;;;43.75;14.60;;;1.50;99.90;;;;;;5017384;28;20068;-70
2023/12/07 09:46:02;;;;;;;43.03;15.43;;;1.50;99.90;;;;;;5032860;28;20112;-70
2023/12/07 09:48:28;;;;;;;41.20;14.35;;;1.60;99.90;;;;;;5032867;28;20030;-70
2023/12/07 09:50:56;;;;;;;43.60;14.15;;;1.60;99.90;;;;;;5017292;28;20025;-70
2023/12/07 09:53:22;;;;;;;43.30;15.25;;;1.60;99.90;;;;;;5017221;28;20100;-70
2023/12/07 09:55:48;;;;;;;48.15;16.65;;;1.50;99.90;;;;;;5016663;28;20088;-70
2023/12/07 09:58:14;;;;;;;48.30;15.77;;;1.70;99.90;;;;;;5032649;28;20064;-70
2023/12/07 10:00:39;;;;;;;50.58;16.52;;;1.70;99.90;;;;;;5033330;28;20029;-70
2023/12/07 10:03:07;;;;;;;46.53;14.93;;;1.90;99.90;;;;;;5032685;28;20076;-70
2023/12/07 10:05:34;;;;;;;45.15;15.57;;;2.00;99.90;;;;;;5033441;28;20026;-70
2023/12/07 10:07:59;;;;;;;48.30;16.48;;;1.80;99.90;;;;;;5032454;28;20053;-70
2023/12/07 10:10:25;;;;;;;48.30;16.55;;;1.80;99.90;;;;;;5032556;28;20026;-70
2023/12/07 10:12:53;;;;;;;51.05;15.73;;;1.80;99.90;;;;;;5032574;28;20026;-70
2023/12/07 10:15:20;;;;;;;50.50;15.60;;;1.90;99.90;;;;;;5017099;28;20076;-70
2023/12/07 10:17:49;;;;;;;51.00;15.60;;;2.10;99.90;;;;;;5032772;28;20033;-70
2023/12/07 10:20:23;;;;;;;49.30;15.88;;;2.10;99.90;;;;;;5017041;28;20022;-70
2023/12/07 10:22:49;;;;;;;51.47;15.50;;;2.10;99.90;;;;;;5032534;28;20026;-70
2023/12/07 10:25:15;;;;;;;44.63;16.30;;;2.00;99.90;;;;;;5032397;28;20029;-70
2023/12/07 10:27:42;;;;;;;56.90;15.90;;;2.00;99.90;;;;;;5032411;28;20026;-70
2023/12/07 10:30:12;;;;;;;62.72;17.42;;;1.90;99.90;;;;;;5020411;28;20033;-70
2023/12/07 10:32:41;;;;;;;57.83;16.55;;;1.90;99.90;;;;;;5021035;28;20028;-70
2023/12/07 10:35:08;;;;;;;56.50;17.25;;;2.00;99.90;;;;;;5036598;28;20049;-70
2023/12/07 10:37:33;;;;;;;64.50;19.17;;;2.00;99.90;;;;;;5036080;28;20021;-70
2023/12/07 10:39:59;;;;;;;64.88;19.27;;;2.00;99.90;;;;;;5020617;28;20029;-70
2023/12/07 10:42:25;;;;;;;74.15;21.02;;;2.10;99.90;;;;;;5020100;28;20018;-70
2023/12/07 10:44:55;;;;;;;53.05;17.02;;;2.10;99.90;;;;;;5036039;28;20026;-70
2023/12/07 10:47:22;;;;;;;65.78;19.15;;;1.90;99.90;;;;;;5036285;28;20029;-70
2023/12/07 10:49:52;;;;;;;62.70;16.42;;;2.00;99.90;;;;;;5036460;28;20030;-70
2023/12/07 10:52:23;;;;;;;63.35;17.00;;;1.90;99.90;;;;;;5036241;28;20033;-71
2023/12/07 10:55:11;;;;;;;57.97;16.48;;;1.80;99.90;;;;;;5019601;28;20026;-70
2023/12/07 10:57:39;;;;;;;65.07;16.83;;;1.90;99.90;;;;;;5020215;28;20041;-70
2023/12/07 11:00:07;;;;;;;55.47;17.42;;;1.90;99.90;;;;;;5035704;28;20116;-70
2023/12/07 11:02:33;;;;;;;61.58;16.73;;;2.00;99.90;;;;;;5019538;28;20033;-70
2023/12/07 11:05:00;;;;;;;62.97;18.98;;;2.00;99.90;;;;;;5020254;28;20022;-70
2023/12/07 11:07:37;;;;;;;61.65;17.45;;;2.00;99.90;;;;;;5019415;28;20029;-70
2023/12/07 11:10:15;;;;;;;59.55;16.70;;;2.10;99.90;;;;;;5020344;28;20084;-70
2023/12/07 11:12:50;;;;;;;64.85;18.45;;;2.10;99.90;;;;;;5019067;28;20034;-70
2023/12/07 11:15:17;;;;;;;61.40;18.60;;;2.20;99.90;;;;;;5020065;28;20037;-70
2023/12/07 11:17:54;;;;;;;54.58;16.13;;;2.20;99.90;;;;;;5018864;28;20030;-70
2023/12/07 11:20:22;;;;;;;56.08;17.40;;;2.00;99.90;;;;;;5019831;28;20022;-70
2023/12/07 11:22:48;;;;;;;66.95;18.33;;;2.20;99.90;;;;;;5019972;28;20030;-70
2023/12/07 11:25:15;;;;;;;41.05;14.95;;;2.40;99.90;;;;;;5020038;28;20022;-70
2023/12/07 11:27:46;;;;;;;51.33;16.35;;;2.60;99.90;;;;;;5035578;28;20029;-70
2023/12/07 11:30:13;;;;;;;46.40;15.52;;;2.90;99.90;;;;;;5035613;28;20045;-70
2023/12/07 11:32:39;;;;;;;55.72;18.30;;;3.10;99.90;;;;;;5036011;28;20037;-70
2023/12/07 11:35:05;;;;;;;59.30;17.20;;;3.00;99.90;;;;;;5019526;28;20038;-70
2023/12/07 11:38:04;;;;;;;49.22;16.05;;;3.10;99.90;;;;;;5019047;28;20037;-70
2023/12/07 11:40:32;;;;;;;46.28;16.65;;;3.10;99.90;;;;;;5033411;22;20137;-66
2023/12/07 11:42:59;;;;;;;52.20;15.30;;;2.80;99.90;;;;;;5018545;28;20029;-66
2023/12/07 11:45:37;;;;;;;54.60;15.63;;;2.40;99.90;;;;;;5034877;28;20057;-66
2023/12/07 11:48:11;;;;;;;47.08;15.73;;;2.50;99.90;;;;;;5019173;28;20018;-66
2023/12/07 11:50:52;;;;;;;50.70;18.55;;;2.40;99.90;;;;;;5018449;28;20116;-66
2023/12/07 11:53:24;;;;;;;53.13;16.50;;;2.40;99.90;;;;;;5018815;28;20065;-66
2023/12/07 11:55:50;;;;;;;46.55;15.32;;;2.40;99.90;;;;;;5018341;28;20025;-66
2023/12/07 11:58:15;;;;;;;48.60;15.40;;;2.30;99.90;;;;;;5019148;28;20128;-66
2023/12/07 12:00:41;;;;;;;48.10;14.73;;;2.30;99.90;;;;;;5018850;28;20074;-66
2023/12/07 12:03:07;;;;;;;49.50;15.57;;;2.20;99.90;;;;;;5018262;28;20033;-66
2023/12/07 12:05:32;;;;;;;54.28;17.00;;;2.20;99.90;;;;;;5019059;28;20026;-66
2023/12/07 12:07:58;;;;;;;60.25;17.25;;;2.20;99.90;;;;;;5019159;28;20018;-66
2023/12/07 12:10:25;;;;;;;58.47;18.42;;;2.10;99.90;;;;;;5018556;28;20032;-66
2023/12/07 12:12:51;;;;;;;52.50;15.88;;;2.10;99.90;;;;;;5018796;28;20018;-66
2023/12/07 12:15:17;;;;;;;54.63;15.70;;;2.10;99.90;;;;;;5018755;28;20030;-66
2023/12/07 12:17:43;;;;;;;61.45;16.60;;;2.00;99.90;;;;;;5017719;28;20022;-66
2023/12/07 12:20:10;;;;;;;51.85;14.95;;;2.00;99.90;;;;;;5018519;28;20033;-66
2023/12/07 12:22:38;;;;;;;61.58;19.02;;;2.00;99.90;;;;;;5018517;28;20029;-66
2023/12/07 12:25:05;;;;;;;67.32;17.77;;;2.10;99.90;;;;;;5018570;28;20038;-66
2023/12/07 12:27:31;;;;;;;54.67;16.42;;;2.10;99.90;;;;;;5018654;28;20014;-68
2023/12/07 12:29:57;;;;;;;61.72;17.75;;;2.10;99.90;;;;;;5018347;28;20030;-66
2023/12/07 12:32:24;;;;;;;70.75;21.08;;;2.20;99.90;;;;;;5018506;28;20042;-66